Time;durP1;ratioP1;P1;durP2;ratioP2;P2;SDS_P1;SDS_P2;PMS_P1;PMS_P2;Temp;Humidity;BMP_temperature;BMP_pressure;BME280_temperature;BME280_humidity;BME280_pressure;Samples;Min_cycle;Max_cycle;Signal;HPM_P1;HPM_P2
2023/06/22 00:02:01;;;;;;;10.85;9.30;;;20.70;99.90;;;;;;5051706;28;20036;-66
2023/06/22 00:04:27;;;;;;;11.48;9.95;;;20.70;99.90;;;;;;5051545;28;20110;-67
2023/06/22 00:06:52;;;;;;;12.98;9.68;;;20.60;99.90;;;;;;5054360;28;20056;-67
2023/06/22 00:09:18;;;;;;;10.77;9.18;;;20.70;99.90;;;;;;5051466;28;20118;-66
2023/06/22 00:11:44;;;;;;;15.02;9.48;;;20.60;99.90;;;;;;5054211;28;20047;-67
2023/06/22 00:14:10;;;;;;;10.73;9.15;;;20.60;99.90;;;;;;5049351;28;20031;-66
2023/06/22 00:16:36;;;;;;;13.15;9.88;;;20.60;99.90;;;;;;5053212;28;20024;-66
2023/06/22 00:19:03;;;;;;;10.25;9.13;;;20.60;99.90;;;;;;5051119;28;20036;-66
2023/06/22 00:21:29;;;;;;;10.75;9.07;;;20.60;99.90;;;;;;5050651;28;20657;-66
2023/06/22 00:23:57;;;;;;;10.93;9.43;;;20.60;99.90;;;;;;5054292;28;20104;-66
2023/06/22 00:26:23;;;;;;;14.70;9.30;;;20.60;99.90;;;;;;5050719;28;20029;-66
2023/06/22 00:28:49;;;;;;;12.52;9.27;;;20.60;99.90;;;;;;5054448;28;20032;-66
2023/06/22 00:31:15;;;;;;;10.85;9.75;;;20.60;99.90;;;;;;5050748;28;20033;-66
2023/06/22 00:33:40;;;;;;;10.23;8.95;;;20.60;99.90;;;;;;5035861;28;20507;-66
2023/06/22 00:36:07;;;;;;;12.77;8.77;;;20.50;99.90;;;;;;5051176;28;20029;-66
2023/06/22 00:38:34;;;;;;;12.38;9.15;;;20.60;99.90;;;;;;5037645;28;20033;-66
2023/06/22 00:41:01;;;;;;;11.18;8.95;;;20.50;99.90;;;;;;5036964;28;20036;-66
2023/06/22 00:43:26;;;;;;;10.98;9.13;;;20.50;99.90;;;;;;5050572;28;20075;-66
2023/06/22 00:45:56;;;;;;;9.57;8.57;;;20.40;99.90;;;;;;5054148;28;20123;-66
2023/06/22 00:48:22;;;;;;;9.77;8.73;;;20.40;99.90;;;;;;5033087;28;20057;-66
2023/06/22 00:50:50;;;;;;;11.90;8.77;;;20.40;99.90;;;;;;5036095;28;20111;-67
2023/06/22 00:53:18;;;;;;;10.63;9.50;;;20.40;99.90;;;;;;5036862;28;20033;-66
2023/06/22 00:55:47;;;;;;;10.70;9.60;;;20.40;99.90;;;;;;5039140;28;20055;-66
2023/06/22 00:58:14;;;;;;;11.00;9.25;;;20.40;99.90;;;;;;5054448;28;20039;-66
2023/06/22 01:00:41;;;;;;;11.07;9.88;;;20.40;99.90;;;;;;5037976;28;20029;-66
2023/06/22 01:03:09;;;;;;;11.52;9.93;;;20.40;99.90;;;;;;5055719;28;20036;-66
2023/06/22 01:05:37;;;;;;;13.48;9.38;;;20.30;99.90;;;;;;5056500;28;20029;-67
2023/06/22 01:08:11;;;;;;;10.50;9.20;;;20.30;99.90;;;;;;5056942;28;20060;-67
2023/06/22 01:10:43;;;;;;;10.20;9.15;;;20.30;99.90;;;;;;5053330;28;20052;-67
2023/06/22 01:13:39;;;;;;;9.38;8.38;;;20.20;99.90;;;;;;5039743;28;20036;-67
2023/06/22 01:16:31;;;;;;;12.05;9.77;;;20.20;99.90;;;;;;5049371;28;20040;-67
2023/06/22 01:19:00;;;;;;;9.48;8.32;;;20.20;99.90;;;;;;5032680;28;20052;-67
2023/06/22 01:21:30;;;;;;;11.25;8.52;;;20.20;99.90;;;;;;5054708;28;20060;-68
2023/06/22 01:24:16;;;;;;;10.75;8.90;;;20.20;99.90;;;;;;5038282;28;20028;-66
2023/06/22 01:27:02;;;;;;;9.60;8.00;;;20.10;99.90;;;;;;5034134;28;20060;-67
2023/06/22 01:29:30;;;;;;;10.20;8.52;;;20.10;99.90;;;;;;5059619;28;20408;-67
2023/06/22 01:31:59;;;;;;;9.95;8.27;;;20.10;99.90;;;;;;5036341;28;20045;-67
2023/06/22 01:34:25;;;;;;;9.40;8.35;;;20.10;99.90;;;;;;5050050;28;20546;-66
2023/06/22 01:36:52;;;;;;;8.85;7.95;;;20.10;99.90;;;;;;5039345;28;20032;-66
2023/06/22 01:39:18;;;;;;;8.93;7.97;;;20.10;99.90;;;;;;5054335;28;20792;-66
2023/06/22 01:41:46;;;;;;;9.43;8.18;;;20.10;99.90;;;;;;5054043;28;20040;-65
2023/06/22 01:44:15;;;;;;;9.57;7.68;;;20.10;99.90;;;;;;5031239;28;20087;-66
2023/06/22 01:46:41;;;;;;;9.55;8.05;;;20.10;99.90;;;;;;5056881;28;20101;-66
2023/06/22 01:49:08;;;;;;;10.48;8.95;;;20.10;99.90;;;;;;5053772;28;20033;-65
2023/06/22 01:51:36;;;;;;;8.90;8.00;;;20.00;99.90;;;;;;5018629;28;20120;-65
2023/06/22 01:54:02;;;;;;;11.25;9.15;;;20.00;99.90;;;;;;5056372;28;20144;-66
2023/06/22 01:56:28;;;;;;;8.90;7.90;;;20.00;99.90;;;;;;5053723;28;20148;-66
2023/06/22 01:59:15;;;;;;;9.82;8.68;;;20.00;99.90;;;;;;5037938;28;20545;-66
2023/06/22 02:02:09;;;;;;;10.90;8.40;;;20.00;99.90;;;;;;5041180;28;20020;-66
2023/06/22 02:04:47;;;;;;;11.02;8.02;;;20.00;99.90;;;;;;5020765;28;20060;-66
2023/06/22 02:07:16;;;;;;;10.82;8.85;;;20.00;99.90;;;;;;5051840;28;20025;-66
2023/06/22 02:09:45;;;;;;;9.45;8.27;;;20.00;99.90;;;;;;5052923;28;20082;-66
2023/06/22 02:12:18;;;;;;;11.23;8.55;;;20.00;99.90;;;;;;5032263;28;20028;-66
2023/06/22 02:14:46;;;;;;;8.93;8.00;;;20.00;99.90;;;;;;5035547;28;20028;-66
2023/06/22 02:17:13;;;;;;;9.48;8.00;;;20.00;99.90;;;;;;5036745;28;20583;-66
2023/06/22 02:19:41;;;;;;;8.75;7.82;;;20.10;99.90;;;;;;5036791;28;20724;-66
2023/06/22 02:22:07;;;;;;;9.60;8.40;;;20.10;99.90;;;;;;5031746;28;20032;-66
2023/06/22 02:24:33;;;;;;;9.30;7.95;;;20.20;99.90;;;;;;5056427;28;20028;-66
2023/06/22 02:27:00;;;;;;;11.68;8.77;;;20.10;99.90;;;;;;5034704;28;20400;-66
2023/06/22 02:29:27;;;;;;;10.35;9.13;;;20.20;99.90;;;;;;5024703;28;20694;-68
2023/06/22 02:31:53;;;;;;;8.63;7.57;;;20.20;99.90;;;;;;5049621;28;20118;-66
2023/06/22 02:34:19;;;;;;;9.23;7.88;;;20.30;99.90;;;;;;5038276;28;20033;-66
2023/06/22 02:36:50;;;;;;;8.57;7.70;;;20.40;99.90;;;;;;5055383;28;20029;-66
2023/06/22 02:39:23;;;;;;;10.85;8.23;;;20.40;99.90;;;;;;5041271;28;20094;-66
2023/06/22 02:41:50;;;;;;;12.23;8.60;;;20.40;99.90;;;;;;5036038;28;20036;-66
2023/06/22 02:44:16;;;;;;;10.05;7.68;;;20.40;99.90;;;;;;5030203;28;20512;-66
2023/06/22 02:46:42;;;;;;;14.73;8.82;;;20.40;99.90;;;;;;5035742;28;20773;-66
2023/06/22 02:49:08;;;;;;;8.90;8.00;;;20.50;99.90;;;;;;5036151;28;20036;-66
2023/06/22 02:51:34;;;;;;;12.73;9.05;;;20.50;99.90;;;;;;5053700;28;20031;-66
2023/06/22 02:54:00;;;;;;;11.23;8.38;;;20.60;99.90;;;;;;5035713;28;20028;-66
2023/06/22 02:56:30;;;;;;;8.95;7.55;;;20.60;99.90;;;;;;5035365;28;20029;-66
2023/06/22 02:59:00;;;;;;;9.43;8.00;;;20.60;99.90;;;;;;5034865;28;20171;-66
2023/06/22 03:01:30;;;;;;;10.80;8.75;;;20.70;99.90;;;;;;5033845;28;20503;-66
2023/06/22 03:03:56;;;;;;;10.82;9.65;;;20.70;99.90;;;;;;5037278;28;20035;-66
2023/06/22 03:06:23;;;;;;;11.75;9.65;;;20.80;99.90;;;;;;5033214;28;20029;-66
2023/06/22 03:08:52;;;;;;;11.45;8.60;;;20.80;99.90;;;;;;5037469;28;20404;-66
2023/06/22 03:11:18;;;;;;;8.98;8.02;;;20.80;99.90;;;;;;5030410;28;20485;-66
2023/06/22 03:13:45;;;;;;;9.68;8.10;;;20.90;99.90;;;;;;5033387;28;20047;-66
2023/06/22 03:16:11;;;;;;;9.88;8.77;;;20.80;99.90;;;;;;5052197;28;20139;-66
2023/06/22 03:18:37;;;;;;;11.25;8.43;;;20.80;99.90;;;;;;5054813;28;20127;-66
2023/06/22 03:21:02;;;;;;;9.02;7.97;;;20.80;99.90;;;;;;5037448;28;20043;-66
2023/06/22 03:23:30;;;;;;;14.85;8.93;;;20.80;99.90;;;;;;5049070;28;20040;-66
2023/06/22 03:25:57;;;;;;;9.73;8.70;;;20.80;99.90;;;;;;5036519;28;20032;-66
2023/06/22 03:28:22;;;;;;;9.77;8.77;;;20.80;99.90;;;;;;5034084;28;20033;-66
2023/06/22 03:30:48;;;;;;;9.98;8.48;;;20.80;99.90;;;;;;5020121;28;20719;-66
2023/06/22 03:33:14;;;;;;;11.27;10.00;;;20.80;99.90;;;;;;5040404;28;20911;-66
2023/06/22 03:35:39;;;;;;;12.60;10.38;;;20.80;99.90;;;;;;5054347;28;20113;-66
2023/06/22 03:38:05;;;;;;;11.48;9.43;;;20.70;99.90;;;;;;5033150;28;20067;-67
2023/06/22 03:40:31;;;;;;;15.85;9.55;;;20.70;99.90;;;;;;5048932;28;20033;-67
2023/06/22 03:42:57;;;;;;;11.18;9.85;;;20.70;99.90;;;;;;5032500;28;20651;-68
2023/06/22 03:45:22;;;;;;;11.90;9.65;;;20.70;99.90;;;;;;5036765;28;20071;-67
2023/06/22 03:47:48;;;;;;;10.23;9.13;;;20.60;99.90;;;;;;5054675;28;20537;-67
2023/06/22 03:50:15;;;;;;;11.52;8.98;;;20.70;99.90;;;;;;5040099;28;20032;-67
2023/06/22 03:52:41;;;;;;;10.32;9.23;;;20.70;99.90;;;;;;5054051;28;20040;-68
2023/06/22 03:55:07;;;;;;;11.68;8.98;;;20.70;99.90;;;;;;5051486;28;20039;-66
2023/06/22 03:57:33;;;;;;;10.23;9.13;;;20.70;99.90;;;;;;5051764;28;20689;-67
2023/06/22 03:59:59;;;;;;;9.45;8.55;;;20.70;99.90;;;;;;5054365;28;20108;-67
2023/06/22 04:02:25;;;;;;;9.93;8.93;;;20.70;99.90;;;;;;5051459;28;20029;-68
2023/06/22 04:04:51;;;;;;;10.07;8.45;;;20.70;99.90;;;;;;5054968;28;20025;-67
2023/06/22 04:07:17;;;;;;;10.40;9.00;;;20.70;99.90;;;;;;5053545;28;20052;-67
2023/06/22 04:09:43;;;;;;;9.75;8.77;;;20.70;99.90;;;;;;5053991;28;20052;-67
2023/06/22 04:12:09;;;;;;;11.57;9.93;;;20.70;99.90;;;;;;5054891;28;20496;-66
2023/06/22 04:14:35;;;;;;;10.68;9.43;;;20.70;99.90;;;;;;5051784;28;20035;-66
2023/06/22 04:17:02;;;;;;;11.55;10.18;;;20.70;99.90;;;;;;5054000;28;20044;-68
2023/06/22 04:19:27;;;;;;;14.45;9.27;;;20.70;99.90;;;;;;5050481;28;20036;-68
2023/06/22 04:21:53;;;;;;;10.45;9.23;;;20.80;99.90;;;;;;5053454;28;20029;-69
2023/06/22 04:24:19;;;;;;;11.50;9.35;;;20.80;99.90;;;;;;5051257;28;20029;-68
2023/06/22 04:26:45;;;;;;;11.45;10.32;;;20.80;99.90;;;;;;5053760;28;20036;-67
2023/06/22 04:29:11;;;;;;;16.67;10.10;;;21.00;99.90;;;;;;5051803;28;20027;-68
2023/06/22 04:57:03;;;;;;;11.82;9.35;;;21.90;99.90;;;;;;6008259;22;20448;-59
2023/06/22 04:59:30;;;;;;;12.95;9.30;;;22.00;99.90;;;;;;5054643;28;20040;-61
2023/06/22 05:01:58;;;;;;;9.18;8.27;;;22.00;99.90;;;;;;5063075;28;20398;-54
2023/06/22 05:04:24;;;;;;;12.40;9.13;;;22.10;99.90;;;;;;5059624;28;20428;-58
2023/06/22 05:06:54;;;;;;;10.73;8.15;;;22.20;99.90;;;;;;5056050;28;20067;-57
2023/06/22 05:09:21;;;;;;;9.32;8.40;;;22.20;99.90;;;;;;5033458;28;20032;-59
2023/06/22 05:11:47;;;;;;;10.65;8.68;;;22.30;99.90;;;;;;5055224;28;20666;-60
2023/06/22 05:14:13;;;;;;;13.38;9.57;;;22.30;99.90;;;;;;5052496;28;20709;-55
2023/06/22 05:16:41;;;;;;;11.88;9.05;;;22.30;99.90;;;;;;5051433;28;20035;-57
2023/06/22 05:19:08;;;;;;;10.68;8.18;;;22.40;99.90;;;;;;5055092;28;20064;-57
2023/06/22 05:21:33;;;;;;;10.20;8.23;;;22.40;99.90;;;;;;5051813;28;20044;-55
2023/06/22 05:24:02;;;;;;;9.50;7.63;;;22.50;99.90;;;;;;5055158;28;20032;-57
2023/06/22 05:26:33;;;;;;;9.18;8.07;;;22.60;99.90;;;;;;5032127;28;20040;-61
2023/06/22 05:29:00;;;;;;;8.65;7.70;;;22.60;99.90;;;;;;5053416;28;20029;-61
2023/06/22 05:31:27;;;;;;;12.30;7.65;;;22.70;99.90;;;;;;5052684;28;20029;-61
2023/06/22 05:33:54;;;;;;;10.60;7.75;;;22.80;99.90;;;;;;5051680;28;20126;-60
2023/06/22 05:36:24;;;;;;;9.43;8.43;;;22.90;99.90;;;;;;5053844;28;20079;-61
2023/06/22 05:38:50;;;;;;;9.90;8.60;;;22.90;99.90;;;;;;5055390;28;20471;-56
2023/06/22 05:41:16;;;;;;;9.98;7.85;;;23.00;99.90;;;;;;5057054;28;20032;-62
2023/06/22 05:43:42;;;;;;;8.65;6.97;;;23.20;99.90;;;;;;5056611;28;20479;-58
2023/06/22 05:46:08;;;;;;;8.55;7.13;;;23.20;99.90;;;;;;5057048;28;20492;-61
2023/06/22 05:48:33;;;;;;;8.23;7.00;;;23.20;99.90;;;;;;5056822;28;20025;-62
2023/06/22 05:50:59;;;;;;;8.13;7.20;;;23.30;99.90;;;;;;5057377;28;20527;-56
2023/06/22 05:53:25;;;;;;;8.38;7.03;;;23.40;99.90;;;;;;5038490;28;20516;-62
2023/06/22 05:55:51;;;;;;;8.88;7.50;;;23.50;99.90;;;;;;5056712;28;20036;-61
2023/06/22 05:58:17;;;;;;;8.57;6.82;;;23.50;99.90;;;;;;5056476;28;20067;-62
2023/06/22 06:00:43;;;;;;;7.55;6.78;;;23.60;99.90;;;;;;5056892;28;20078;-62
2023/06/22 06:03:10;;;;;;;7.45;5.80;;;23.60;99.90;;;;;;5056672;28;20032;-62
2023/06/22 06:05:37;;;;;;;8.35;5.60;;;23.70;98.10;;;;;;5056452;28;20041;-59
2023/06/22 06:08:05;;;;;;;8.05;5.30;;;23.70;96.80;;;;;;5056295;28;20032;-62
2023/06/22 06:10:32;;;;;;;7.70;4.93;;;23.70;96.50;;;;;;5054943;28;20677;-62
2023/06/22 06:12:58;;;;;;;6.82;4.90;;;23.80;96.80;;;;;;5057074;28;20381;-59
2023/06/22 06:15:24;;;;;;;6.65;4.95;;;23.90;97.50;;;;;;5055315;28;20043;-60
2023/06/22 06:17:52;;;;;;;7.70;5.15;;;24.00;96.90;;;;;;5057294;28;20025;-59
2023/06/22 06:20:30;;;;;;;7.82;5.55;;;24.20;96.60;;;;;;5055549;28;20047;-61
2023/06/22 06:22:56;;;;;;;5.88;4.90;;;24.30;96.30;;;;;;5053941;28;20141;-61
2023/06/22 06:25:22;;;;;;;6.95;4.85;;;24.30;95.70;;;;;;5054406;28;20028;-62
2023/06/22 06:27:49;;;;;;;6.70;5.32;;;24.30;96.50;;;;;;5054015;28;20606;-57
2023/06/22 06:30:17;;;;;;;6.75;5.57;;;24.40;96.90;;;;;;5057105;28;20104;-59
2023/06/22 06:32:45;;;;;;;5.75;5.15;;;24.40;96.60;;;;;;5049795;28;20113;-58
2023/06/22 06:35:12;;;;;;;6.65;5.60;;;24.50;96.10;;;;;;5056932;28;20024;-58
2023/06/22 06:37:40;;;;;;;6.43;5.10;;;24.60;97.20;;;;;;5055431;28;20127;-59
2023/06/22 06:40:10;;;;;;;6.25;4.70;;;24.70;97.00;;;;;;5056233;28;20024;-59
2023/06/22 06:42:41;;;;;;;5.68;5.07;;;24.70;96.40;;;;;;5056421;28;20029;-58
2023/06/22 06:45:08;;;;;;;8.32;4.97;;;24.70;95.20;;;;;;5053797;28;20395;-61
2023/06/22 06:47:34;;;;;;;8.55;4.60;;;24.70;94.80;;;;;;5054078;28;20485;-62
2023/06/22 06:50:00;;;;;;;7.55;5.10;;;24.80;94.50;;;;;;5056919;28;20055;-61
2023/06/22 06:52:26;;;;;;;6.13;4.93;;;24.90;94.40;;;;;;5054582;28;20032;-58
2023/06/22 06:54:52;;;;;;;7.55;5.38;;;25.00;93.70;;;;;;5057418;28;20074;-62
2023/06/22 06:57:20;;;;;;;5.72;4.40;;;25.00;93.30;;;;;;5054147;28;20044;-63
2023/06/22 06:59:46;;;;;;;7.55;4.78;;;25.10;93.40;;;;;;5057004;28;20063;-62
2023/06/22 07:02:12;;;;;;;6.18;4.82;;;25.20;94.10;;;;;;5053127;28;20033;-62
2023/06/22 07:04:37;;;;;;;6.22;5.15;;;25.30;92.60;;;;;;5053183;28;20145;-62
2023/06/22 07:07:03;;;;;;;6.30;5.03;;;25.40;92.50;;;;;;5056566;28;20032;-62
2023/06/22 07:09:29;;;;;;;6.80;4.80;;;25.50;91.80;;;;;;5051678;28;20055;-61
2023/06/22 07:11:55;;;;;;;4.68;4.15;;;25.60;91.40;;;;;;5056675;28;20078;-61
2023/06/22 07:14:21;;;;;;;7.78;4.25;;;25.60;92.10;;;;;;5056489;28;20028;-59
2023/06/22 07:16:47;;;;;;;6.95;5.13;;;25.80;90.80;;;;;;5056730;28;20099;-59
2023/06/22 07:19:13;;;;;;;5.75;4.20;;;25.80;90.80;;;;;;5053872;28;20036;-62
2023/06/22 07:21:42;;;;;;;6.47;4.30;;;25.90;90.40;;;;;;5053955;28;20035;-62
2023/06/22 07:24:07;;;;;;;3.90;3.50;;;26.00;90.50;;;;;;5047118;28;20506;-60
2023/06/22 07:26:33;;;;;;;4.22;3.72;;;26.00;91.20;;;;;;5049493;28;20033;-62
2023/06/22 07:28:59;;;;;;;5.13;3.90;;;26.00;87.30;;;;;;5050884;28;20035;-58
2023/06/22 07:31:26;;;;;;;6.25;3.72;;;26.00;87.70;;;;;;5054047;28;20788;-60
2023/06/22 07:33:52;;;;;;;8.48;3.45;;;26.00;88.70;;;;;;5052282;28;20035;-58
2023/06/22 07:36:18;;;;;;;4.85;3.75;;;26.10;90.50;;;;;;5050933;28;20066;-57
2023/06/22 07:38:44;;;;;;;6.35;3.63;;;26.20;90.10;;;;;;5057411;28;20467;-60
2023/06/22 07:41:10;;;;;;;4.28;3.55;;;26.30;90.20;;;;;;5056779;28;20040;-62
2023/06/22 07:43:36;;;;;;;5.30;3.45;;;26.30;90.10;;;;;;5052489;28;20037;-62
2023/06/22 07:46:05;;;;;;;4.18;3.42;;;26.30;87.80;;;;;;5056274;28;20568;-60
2023/06/22 07:48:31;;;;;;;5.93;3.80;;;26.30;89.10;;;;;;5053224;28;20828;-56
2023/06/22 07:50:57;;;;;;;5.00;3.15;;;26.20;82.80;;;;;;5055975;28;20047;-62
2023/06/22 07:53:23;;;;;;;3.65;3.17;;;26.20;87.40;;;;;;5053302;28;20037;-61
2023/06/22 07:55:50;;;;;;;4.93;3.10;;;26.20;85.90;;;;;;5052551;28;20473;-61
2023/06/22 07:58:16;;;;;;;4.25;3.60;;;26.20;85.20;;;;;;5055681;28;20127;-60
2023/06/22 08:00:41;;;;;;;7.78;3.55;;;26.20;84.10;;;;;;5049532;28;20048;-60
2023/06/22 08:03:07;;;;;;;3.83;3.40;;;26.20;87.20;;;;;;5056146;28;20040;-59
2023/06/22 08:05:33;;;;;;;3.63;3.30;;;26.30;85.10;;;;;;5053268;28;20064;-60
2023/06/22 08:07:59;;;;;;;3.53;3.10;;;26.40;87.00;;;;;;5055881;28;20055;-60
2023/06/22 08:10:25;;;;;;;21.70;10.13;;;26.40;86.20;;;;;;5052863;28;20040;-56
2023/06/22 08:12:52;;;;;;;6.03;3.72;;;26.50;85.00;;;;;;5055691;28;20031;-60
2023/06/22 08:15:18;;;;;;;3.40;3.10;;;26.50;81.20;;;;;;5052288;28;20214;-60
2023/06/22 08:17:48;;;;;;;3.53;3.03;;;26.50;81.60;;;;;;5052051;28;20489;-60
2023/06/22 08:20:14;;;;;;;4.60;3.85;;;26.60;83.40;;;;;;5054658;28;20052;-60
2023/06/22 08:22:41;;;;;;;7.15;4.18;;;26.60;83.60;;;;;;5053518;28;20021;-60
2023/06/22 08:25:08;;;;;;;4.45;3.58;;;26.70;83.00;;;;;;5054471;28;20025;-60
2023/06/22 08:27:35;;;;;;;6.45;3.90;;;26.80;82.40;;;;;;5053748;28;20037;-60
2023/06/22 08:30:01;;;;;;;8.07;4.07;;;26.80;82.90;;;;;;5054279;28;20055;-60
2023/06/22 08:32:28;;;;;;;5.32;3.40;;;26.90;84.10;;;;;;5052293;28;20025;-61
2023/06/22 08:34:55;;;;;;;3.72;3.33;;;26.80;80.90;;;;;;5054311;28;20021;-59
2023/06/22 08:37:23;;;;;;;5.05;3.47;;;26.80;79.00;;;;;;5053618;28;20090;-62
2023/06/22 08:39:50;;;;;;;5.47;3.88;;;26.90;79.40;;;;;;5054733;28;20078;-61
2023/06/22 08:42:16;;;;;;;9.77;3.72;;;27.00;82.10;;;;;;5053458;28;20044;-59
2023/06/22 08:44:41;;;;;;;9.02;3.45;;;27.00;78.90;;;;;;5047654;28;20033;-59
2023/06/22 08:47:07;;;;;;;3.40;3.08;;;27.10;79.70;;;;;;5053443;28;20317;-61
2023/06/22 08:49:33;;;;;;;3.63;2.78;;;27.30;77.00;;;;;;5052093;28;20020;-62
2023/06/22 08:51:59;;;;;;;3.83;3.15;;;27.30;75.50;;;;;;5054666;28;20052;-61
2023/06/22 08:54:24;;;;;;;4.78;2.88;;;27.40;76.70;;;;;;5050667;28;20504;-62
2023/06/22 08:56:50;;;;;;;3.40;2.80;;;27.40;75.90;;;;;;5055829;28;20033;-60
2023/06/22 08:59:16;;;;;;;4.28;3.30;;;27.50;75.60;;;;;;5053230;28;20052;-62
2023/06/22 09:01:45;;;;;;;3.22;2.92;;;27.50;76.50;;;;;;5054412;28;20033;-62
2023/06/22 09:04:11;;;;;;;6.13;2.90;;;27.60;79.10;;;;;;5053106;28;20041;-62
2023/06/22 09:06:44;;;;;;;5.25;3.22;;;27.70;75.20;;;;;;5051765;28;20025;-60
2023/06/22 09:09:10;;;;;;;4.70;3.38;;;27.70;75.50;;;;;;5048866;28;20035;-61
2023/06/22 09:11:36;;;;;;;4.47;3.20;;;27.60;74.60;;;;;;5051348;28;20112;-60
2023/06/22 09:14:03;;;;;;;4.00;2.80;;;27.60;76.70;;;;;;5053495;28;20048;-60
2023/06/22 09:16:29;;;;;;;4.93;2.95;;;27.60;73.00;;;;;;5053649;28;20765;-60
2023/06/22 09:18:55;;;;;;;3.75;2.60;;;27.70;75.30;;;;;;5056060;28;20479;-59
2023/06/22 09:21:21;;;;;;;2.90;2.60;;;27.70;70.00;;;;;;5056618;28;20052;-62
2023/06/22 09:23:50;;;;;;;4.63;2.75;;;27.70;70.50;;;;;;5066995;28;20488;-62
2023/06/22 09:26:20;;;;;;;3.15;2.83;;;27.70;70.90;;;;;;5055530;28;20048;-59
2023/06/22 09:28:46;;;;;;;5.18;2.78;;;27.70;73.10;;;;;;5056515;28;20029;-60
2023/06/22 09:31:11;;;;;;;4.55;2.80;;;27.70;70.10;;;;;;5054506;28;20087;-62
2023/06/22 09:33:40;;;;;;;3.28;2.80;;;27.80;68.80;;;;;;5056890;28;20032;-61
2023/06/22 09:36:09;;;;;;;3.70;2.50;;;27.70;70.00;;;;;;5057840;28;20066;-60
2023/06/22 09:38:37;;;;;;;3.13;2.67;;;27.70;69.40;;;;;;5060264;28;20488;-61
2023/06/22 09:41:04;;;;;;;2.78;2.20;;;27.80;70.80;;;;;;5052835;28;20082;-62
2023/06/22 09:43:31;;;;;;;3.05;2.75;;;27.90;70.60;;;;;;5051294;28;20033;-58
2023/06/22 09:45:57;;;;;;;5.82;2.95;;;28.10;70.40;;;;;;5057595;28;20033;-61
2023/06/22 09:48:22;;;;;;;3.67;3.00;;;28.10;68.90;;;;;;5056357;28;20032;-62
2023/06/22 09:50:48;;;;;;;4.40;3.38;;;28.10;68.30;;;;;;5059492;28;20441;-59
2023/06/22 09:53:14;;;;;;;5.45;3.30;;;28.10;67.90;;;;;;5055028;28;20032;-59
2023/06/22 09:55:40;;;;;;;4.47;3.35;;;28.00;68.10;;;;;;5055858;28;20068;-61
2023/06/22 09:58:05;;;;;;;5.78;3.17;;;28.00;68.40;;;;;;5039757;28;20115;-58
2023/06/22 10:00:31;;;;;;;3.95;3.55;;;28.00;68.00;;;;;;5054450;28;20040;-61
2023/06/22 10:02:57;;;;;;;3.38;3.03;;;27.90;69.60;;;;;;5056511;28;20040;-60
2023/06/22 10:05:24;;;;;;;5.60;3.65;;;27.90;69.60;;;;;;5051733;28;20071;-60
2023/06/22 10:07:50;;;;;;;3.83;2.80;;;27.90;69.30;;;;;;5056423;28;20064;-60
2023/06/22 10:10:16;;;;;;;3.88;2.95;;;28.00;68.20;;;;;;5055534;28;20305;-61
2023/06/22 10:12:48;;;;;;;4.63;3.60;;;28.10;68.40;;;;;;5056301;28;20484;-61
2023/06/22 10:15:14;;;;;;;4.85;3.60;;;28.20;69.70;;;;;;5054634;28;20070;-62
2023/06/22 10:17:40;;;;;;;3.50;3.17;;;28.30;69.00;;;;;;5053547;28;20021;-59
2023/06/22 10:20:13;;;;;;;5.20;3.33;;;28.40;69.00;;;;;;5057753;28;20470;-61
2023/06/22 10:22:44;;;;;;;4.53;3.80;;;28.40;69.40;;;;;;5054600;28;20112;-61
2023/06/22 10:25:11;;;;;;;5.50;3.28;;;28.50;69.00;;;;;;5054601;28;20065;-65
2023/06/22 10:27:39;;;;;;;3.70;3.35;;;28.70;68.60;;;;;;5054628;28;20033;-58
2023/06/22 10:30:08;;;;;;;7.28;3.45;;;28.60;69.00;;;;;;5056437;28;20124;-60
2023/06/22 10:32:34;;;;;;;9.75;4.55;;;28.70;68.00;;;;;;5055926;28;20037;-60
2023/06/22 10:35:00;;;;;;;4.28;3.03;;;28.70;68.20;;;;;;5056213;28;20032;-62
2023/06/22 10:37:26;;;;;;;4.45;3.67;;;28.70;66.10;;;;;;5053841;28;20791;-61
2023/06/22 10:39:51;;;;;;;4.90;3.38;;;28.60;66.20;;;;;;5056043;28;20126;-60
2023/06/22 10:42:17;;;;;;;4.07;3.45;;;28.60;67.80;;;;;;5055607;28;20063;-62
2023/06/22 10:44:44;;;;;;;6.78;3.80;;;28.60;68.30;;;;;;5039816;28;20068;-60
2023/06/22 10:47:11;;;;;;;7.40;3.85;;;28.60;67.50;;;;;;5055337;28;20532;-60
2023/06/22 10:49:38;;;;;;;5.13;3.65;;;28.60;65.80;;;;;;5055757;28;20857;-60
2023/06/22 10:52:07;;;;;;;4.35;3.33;;;28.70;66.40;;;;;;5055644;28;20075;-59
2023/06/22 10:54:35;;;;;;;7.20;3.60;;;28.80;67.00;;;;;;5053905;28;20040;-61
2023/06/22 10:57:01;;;;;;;4.03;3.58;;;28.90;66.70;;;;;;5038692;28;20058;-58
2023/06/22 10:59:28;;;;;;;4.03;3.63;;;29.00;65.90;;;;;;5053107;28;20033;-60
2023/06/22 11:01:55;;;;;;;4.82;3.90;;;29.20;66.40;;;;;;5054984;28;20033;-60
2023/06/22 11:04:21;;;;;;;6.28;3.47;;;29.40;66.00;;;;;;5056770;28;20534;-60
2023/06/22 11:06:49;;;;;;;4.93;3.60;;;29.60;65.80;;;;;;5056561;28;20199;-61
2023/06/22 11:09:20;;;;;;;3.83;3.15;;;29.70;67.80;;;;;;5055852;28;20025;-60
2023/06/22 11:11:50;;;;;;;4.55;3.47;;;29.60;62.30;;;;;;5051792;28;20032;-59
2023/06/22 11:14:17;;;;;;;6.10;4.00;;;29.50;61.20;;;;;;5054963;28;20032;-61
2023/06/22 11:16:42;;;;;;;4.13;3.72;;;29.40;61.80;;;;;;5050371;28;20029;-61
2023/06/22 11:19:08;;;;;;;5.07;3.95;;;29.40;61.20;;;;;;5055434;28;20518;-60
2023/06/22 11:21:34;;;;;;;4.70;3.15;;;29.40;64.00;;;;;;5052560;28;20556;-58
2023/06/22 11:24:00;;;;;;;4.15;3.10;;;29.20;62.10;;;;;;5054122;28;20106;-61
2023/06/22 11:26:29;;;;;;;4.85;3.67;;;29.20;60.80;;;;;;5052802;28;20032;-61
2023/06/22 11:28:55;;;;;;;3.88;3.40;;;29.10;62.60;;;;;;5055259;28;20128;-60
2023/06/22 11:31:21;;;;;;;4.28;3.13;;;29.10;62.60;;;;;;5046131;28;20121;-59
2023/06/22 11:33:47;;;;;;;4.55;3.78;;;29.00;62.50;;;;;;5054518;28;20068;-60
2023/06/22 11:36:14;;;;;;;4.55;3.05;;;28.90;60.70;;;;;;5054249;28;20037;-60
2023/06/22 11:38:40;;;;;;;4.35;3.22;;;28.90;60.20;;;;;;5054246;28;20036;-60
2023/06/22 11:41:07;;;;;;;3.80;3.42;;;28.90;62.60;;;;;;5052732;28;20131;-61
2023/06/22 11:43:33;;;;;;;3.55;3.25;;;29.00;63.50;;;;;;5049340;28;20036;-58
2023/06/22 11:46:00;;;;;;;4.30;3.90;;;29.00;59.50;;;;;;5056477;28;20040;-60
2023/06/22 11:48:26;;;;;;;4.22;3.60;;;29.00;61.80;;;;;;5048837;28;20156;-60
2023/06/22 11:50:52;;;;;;;3.92;3.53;;;29.10;62.50;;;;;;5054827;28;20124;-60
2023/06/22 11:53:18;;;;;;;3.47;3.17;;;29.10;62.30;;;;;;5056409;28;20105;-62
2023/06/22 11:55:44;;;;;;;3.70;3.40;;;29.30;60.70;;;;;;5052095;28;20033;-62
2023/06/22 11:58:11;;;;;;;4.30;3.60;;;29.30;60.80;;;;;;5052584;28;20076;-64
2023/06/22 12:00:37;;;;;;;6.85;4.10;;;29.40;61.90;;;;;;5058644;28;20033;-62
2023/06/22 12:03:03;;;;;;;5.55;3.90;;;29.40;60.80;;;;;;5053926;28;20471;-61
2023/06/22 12:05:29;;;;;;;4.47;3.70;;;29.40;59.30;;;;;;5049320;28;20132;-61
2023/06/22 12:07:55;;;;;;;7.68;4.00;;;29.40;59.20;;;;;;5051763;28;20143;-60
2023/06/22 12:10:25;;;;;;;4.18;3.35;;;29.30;57.00;;;;;;5053512;28;20028;-60
2023/06/22 12:12:51;;;;;;;6.97;3.50;;;29.10;57.30;;;;;;5050025;28;20053;-58
2023/06/22 12:15:17;;;;;;;3.80;3.50;;;29.10;57.20;;;;;;5052502;28;20064;-62
2023/06/22 12:17:43;;;;;;;3.60;3.30;;;29.10;58.40;;;;;;5055100;28;20727;-62
2023/06/22 12:20:09;;;;;;;4.82;3.47;;;29.20;59.10;;;;;;5053521;28;20067;-61
2023/06/22 12:22:37;;;;;;;4.38;3.63;;;29.20;59.10;;;;;;5052658;28;20668;-60
2023/06/22 12:25:03;;;;;;;3.65;3.35;;;29.30;58.90;;;;;;5055270;28;20490;-61
2023/06/22 12:27:30;;;;;;;6.53;3.42;;;29.30;57.00;;;;;;5052529;28;20472;-61
2023/06/22 12:29:56;;;;;;;3.47;3.17;;;29.30;58.00;;;;;;5053548;28;20101;-62
2023/06/22 12:32:22;;;;;;;5.85;3.20;;;29.20;57.20;;;;;;5054917;28;20033;-61
2023/06/22 12:34:48;;;;;;;4.70;3.67;;;29.40;58.70;;;;;;5055511;28;20044;-61
2023/06/22 12:37:14;;;;;;;6.97;3.70;;;29.40;57.50;;;;;;5052421;28;20029;-59
2023/06/22 12:39:41;;;;;;;3.92;3.58;;;29.60;58.80;;;;;;5052075;28;20024;-61
2023/06/22 12:42:08;;;;;;;4.57;4.00;;;29.80;59.10;;;;;;5055686;28;20447;-61
2023/06/22 12:44:39;;;;;;;4.88;4.47;;;29.90;59.10;;;;;;5050082;28;20407;-62
2023/06/22 12:47:05;;;;;;;3.70;3.40;;;30.00;59.00;;;;;;5044508;28;20480;-61
2023/06/22 12:49:31;;;;;;;4.15;3.60;;;30.00;57.00;;;;;;5055575;28;20527;-62
2023/06/22 12:51:57;;;;;;;4.05;3.55;;;30.00;55.40;;;;;;5041752;28;20035;-62
2023/06/22 12:54:23;;;;;;;3.85;3.53;;;29.90;55.80;;;;;;5057982;28;20522;-61
2023/06/22 12:56:50;;;;;;;3.30;3.03;;;29.80;57.70;;;;;;5052866;28;20043;-62
2023/06/22 12:59:17;;;;;;;4.82;3.70;;;29.80;56.70;;;;;;5047116;28;20073;-61
2023/06/22 13:01:45;;;;;;;6.88;3.88;;;29.70;57.50;;;;;;5051077;28;20021;-65
2023/06/22 13:04:14;;;;;;;5.20;3.80;;;29.80;57.90;;;;;;5055594;28;20032;-60
2023/06/22 13:06:47;;;;;;;5.50;4.03;;;29.70;56.10;;;;;;5054651;28;20025;-60
2023/06/22 13:09:14;;;;;;;5.18;3.70;;;29.70;56.50;;;;;;5036042;28;20090;-61